createdAt,value
2022-12-01T00:02:15.990Z,54.40
2022-12-01T00:04:44.322Z,56.10
2022-12-01T00:07:12.404Z,32.20
2022-12-01T00:09:59.375Z,22.20
2022-12-01T00:12:29.446Z,19.30
2022-12-01T00:15:01.311Z,53.00
2022-12-01T00:17:30.328Z,50.20
2022-12-01T00:19:58.491Z,67.40
2022-12-01T00:22:26.765Z,45.30
2022-12-01T00:24:54.862Z,21.20
2022-12-01T00:27:23.017Z,13.50
2022-12-01T00:29:51.141Z,34.20
2022-12-01T00:32:19.580Z,13.60
2022-12-01T00:34:47.807Z,55.90
2022-12-01T00:37:16.089Z,61.10
2022-12-01T00:39:44.070Z,57.90
2022-12-01T00:42:13.558Z,57.60
2022-12-01T00:44:42.045Z,54.00
2022-12-01T00:47:10.081Z,16.20
2022-12-01T00:49:38.321Z,57.40
2022-12-01T00:52:06.784Z,55.70
2022-12-01T00:54:35.028Z,48.60
2022-12-01T00:57:03.420Z,58.80
2022-12-01T00:59:31.605Z,50.80
2022-12-01T01:02:00.388Z,58.30
2022-12-01T01:04:33.389Z,56.10
2022-12-01T01:07:02.223Z,52.90
2022-12-01T01:09:31.751Z,61.40
2022-12-01T01:12:00.333Z,54.50
2022-12-01T01:14:28.800Z,52.60
2022-12-01T01:16:57.161Z,34.60
2022-12-01T01:19:25.704Z,20.70
2022-12-01T01:21:53.951Z,12.70
2022-12-01T01:24:22.125Z,54.00
2022-12-01T01:26:50.541Z,55.80
2022-12-01T01:29:18.665Z,31.20
2022-12-01T01:31:46.986Z,23.60
2022-12-01T01:34:15.339Z,49.80
2022-12-01T01:36:44.584Z,21.30
2022-12-01T01:39:12.655Z,57.70
2022-12-01T01:41:40.976Z,62.00
2022-12-01T01:44:46.138Z,61.20
2022-12-01T01:47:16.050Z,60.00
2022-12-01T01:49:44.453Z,34.10
2022-12-01T01:52:13.400Z,24.40
2022-12-01T01:54:47.999Z,29.00
2022-12-01T01:57:23.227Z,16.70
2022-12-01T01:59:57.680Z,19.90
2022-12-01T02:02:26.016Z,64.20
2022-12-01T02:05:01.891Z,67.50
2022-12-01T02:07:30.181Z,100.50
2022-12-01T02:09:58.954Z,128.70
2022-12-01T02:12:39.011Z,90.70
2022-12-01T02:15:23.652Z,86.10
2022-12-01T02:18:05.314Z,114.70
2022-12-01T02:21:04.664Z,87.10
2022-12-01T02:23:51.143Z,63.50
2022-12-01T02:26:31.330Z,56.00
2022-12-01T02:29:33.832Z,61.20
2022-12-01T02:32:17.291Z,25.80
2022-12-01T02:34:56.896Z,55.30
2022-12-01T02:37:48.879Z,43.20
2022-12-01T02:40:35.855Z,28.60
2022-12-01T02:43:12.777Z,32.50
2022-12-01T02:45:45.796Z,58.30
2022-12-01T02:48:26.214Z,13.40
2022-12-01T02:50:58.852Z,61.90
2022-12-01T02:53:27.126Z,41.10
2022-12-01T02:55:58.498Z,62.70
2022-12-01T02:58:26.616Z,45.70
2022-12-01T03:01:46.246Z,25.40
2022-12-01T03:04:20.742Z,65.00
2022-12-01T03:07:35.397Z,57.30
2022-12-01T03:10:28.430Z,67.80
2022-12-01T03:15:52.119Z,59.50
2022-12-01T03:18:38.669Z,97.30
2022-12-01T03:21:20.676Z,62.40
2022-12-01T03:23:55.450Z,20.80
2022-12-01T03:26:26.366Z,70.80
2022-12-01T03:29:00.461Z,85.40
2022-12-01T03:31:35.399Z,125.00
2022-12-01T03:34:19.436Z,156.60
2022-12-01T03:36:53.167Z,86.60
2022-12-01T03:39:26.321Z,320.10
2022-12-01T03:42:00.004Z,140.00
2022-12-01T03:44:54.186Z,31.00
2022-12-01T03:47:32.150Z,13.80
2022-12-01T03:50:00.896Z,47.00
2022-12-01T03:52:45.633Z,47.40
2022-12-01T03:55:31.670Z,57.30
2022-12-01T03:58:21.250Z,44.80
2022-12-01T04:00:53.507Z,51.90
2022-12-01T04:03:25.645Z,17.80
2022-12-01T04:05:54.227Z,9.80
2022-12-01T04:08:22.537Z,13.60
2022-12-01T04:10:51.101Z,49.10
2022-12-01T04:13:23.383Z,55.10
2022-12-01T04:15:53.076Z,56.00
2022-12-01T04:18:22.152Z,36.20
2022-12-01T04:20:50.726Z,15.30
2022-12-01T04:23:57.487Z,11.80
2022-12-01T04:26:25.594Z,9.00
2022-12-01T04:28:53.849Z,49.10
2022-12-01T04:31:22.091Z,43.70
2022-12-01T04:33:50.311Z,46.70
2022-12-01T04:36:18.469Z,33.10
2022-12-01T04:38:46.723Z,39.00
2022-12-01T04:41:14.929Z,15.80
2022-12-01T04:43:43.242Z,10.70
2022-12-01T04:46:12.193Z,9.40
2022-12-01T04:48:40.756Z,46.20
2022-12-01T04:51:09.473Z,50.80
2022-12-01T04:53:38.194Z,45.40
2022-12-01T04:56:06.681Z,48.60
2022-12-01T04:58:37.957Z,21.40
2022-12-01T05:01:09.288Z,20.30
2022-12-01T05:03:39.569Z,25.30
2022-12-01T05:06:14.154Z,9.30
2022-12-01T05:08:42.278Z,41.70
2022-12-01T05:11:12.322Z,49.60
2022-12-01T05:13:42.494Z,48.70
2022-12-01T05:16:19.919Z,45.60
2022-12-01T05:19:13.845Z,35.00
2022-12-01T05:21:43.782Z,21.90
2022-12-01T05:24:13.204Z,10.20
2022-12-01T05:26:43.038Z,30.30
2022-12-01T05:29:12.566Z,60.50
2022-12-01T05:31:40.848Z,53.00
2022-12-01T05:34:09.744Z,55.70
2022-12-01T05:36:37.905Z,55.90
2022-12-01T05:39:06.038Z,56.30
2022-12-01T05:41:34.273Z,39.00
2022-12-01T05:44:02.290Z,21.00
2022-12-01T05:46:30.534Z,75.40
2022-12-01T05:48:58.858Z,68.80
2022-12-01T05:51:27.155Z,22.60
2022-12-01T05:53:55.316Z,35.10
2022-12-01T05:56:23.509Z,62.30
2022-12-01T05:58:51.700Z,56.70
2022-12-01T06:01:19.941Z,35.40
2022-12-01T06:03:48.278Z,34.80
2022-12-01T06:06:16.598Z,17.70
2022-12-01T06:08:44.711Z,61.70
2022-12-01T06:11:12.878Z,63.50
2022-12-01T06:13:40.877Z,31.40
2022-12-01T06:16:09.380Z,47.60
2022-12-01T06:18:39.222Z,20.00
2022-12-01T06:21:07.664Z,65.10
2022-12-01T06:23:35.937Z,57.70
2022-12-01T06:26:04.544Z,62.50
2022-12-01T06:28:32.757Z,54.00
2022-12-01T06:31:03.422Z,61.60
2022-12-01T06:33:32.386Z,80.20
2022-12-01T06:36:07.100Z,65.00
2022-12-01T06:38:36.954Z,25.10
2022-12-01T06:41:06.022Z,24.20
2022-12-01T06:43:37.951Z,22.30
2022-12-01T06:46:06.415Z,73.60
2022-12-01T06:48:34.841Z,73.30
2022-12-01T06:51:03.597Z,80.50
2022-12-01T06:53:31.931Z,85.60
2022-12-01T06:56:01.678Z,81.60
2022-12-01T06:58:30.618Z,96.30
2022-12-01T07:00:59.485Z,127.70
2022-12-01T07:03:27.716Z,99.80
2022-12-01T07:06:00.685Z,115.10
2022-12-01T07:08:29.867Z,112.40
2022-12-01T07:11:07.790Z,116.70
2022-12-01T07:13:36.728Z,113.20
2022-12-01T07:16:06.291Z,104.40
2022-12-01T07:18:36.026Z,151.10
2022-12-01T07:21:07.247Z,163.50
2022-12-01T07:23:36.559Z,203.90
2022-12-01T07:26:04.678Z,209.90
2022-12-01T07:28:33.623Z,175.00
2022-12-01T07:31:10.111Z,212.80
2022-12-01T07:33:38.804Z,187.80
2022-12-01T07:36:07.825Z,74.50
2022-12-01T07:38:36.401Z,87.30
2022-12-01T07:41:10.669Z,112.00
2022-12-01T07:43:39.840Z,116.10
2022-12-01T07:46:22.372Z,102.50
2022-12-01T07:48:53.020Z,74.00
2022-12-01T07:51:22.327Z,77.80
2022-12-01T07:53:51.556Z,62.50
2022-12-01T07:56:21.396Z,75.00
2022-12-01T07:58:49.697Z,82.60
2022-12-01T08:01:20.657Z,104.70
2022-12-01T08:03:50.362Z,64.10
2022-12-01T08:06:19.173Z,105.60
2022-12-01T08:08:47.849Z,91.30
2022-12-01T08:11:19.632Z,69.50
2022-12-01T08:13:48.364Z,85.50
2022-12-01T08:16:18.724Z,80.80
2022-12-01T08:18:47.309Z,72.60
2022-12-01T08:21:18.039Z,78.00
2022-12-01T08:23:46.316Z,63.80
2022-12-01T08:26:17.908Z,48.80
2022-12-01T08:28:46.966Z,84.70
2022-12-01T08:31:31.794Z,79.10
2022-12-01T08:33:59.951Z,81.20
2022-12-01T11:31:00.456Z,10.10
2022-12-01T11:34:34.699Z,9.00
2022-12-01T11:37:06.874Z,10.10
2022-12-01T11:39:41.346Z,9.10
2022-12-01T11:42:12.185Z,6.90
2022-12-01T11:47:56.011Z,10.40
2022-12-01T11:50:27.462Z,13.70
2022-12-01T11:52:55.619Z,11.80
2022-12-01T11:55:27.153Z,9.10
2022-12-01T11:58:04.112Z,13.30
2022-12-01T12:00:47.481Z,9.10
2022-12-01T12:03:32.765Z,17.90
2022-12-01T12:06:42.337Z,10.30
2022-12-01T12:09:54.900Z,9.40
2022-12-01T12:12:36.687Z,10.90
2022-12-01T12:15:25.940Z,11.00
2022-12-01T12:17:54.018Z,10.90
2022-12-01T12:20:29.855Z,12.70
2022-12-01T12:23:34.776Z,11.30
2022-12-01T12:26:43.816Z,9.40
2022-12-01T12:29:27.163Z,9.50
2022-12-01T12:32:05.684Z,7.90
2022-12-01T12:34:39.385Z,8.80
2022-12-01T12:37:50.805Z,22.70
2022-12-01T12:40:30.558Z,17.00
2022-12-01T12:43:20.149Z,12.40
2022-12-01T12:46:06.664Z,7.60
2022-12-01T12:49:18.523Z,6.50
2022-12-01T12:51:50.726Z,7.90
2022-12-01T12:54:36.252Z,9.70
2022-12-01T12:57:28.927Z,8.20
2022-12-01T13:00:05.669Z,10.30
2022-12-01T13:02:58.865Z,7.70
2022-12-01T13:05:44.017Z,11.10
2022-12-01T13:08:24.256Z,12.30
2022-12-01T13:11:01.180Z,8.70
2022-12-01T13:13:55.945Z,7.10
2022-12-01T13:16:40.609Z,11.70
2022-12-01T13:21:43.295Z,13.70
2022-12-01T13:24:23.000Z,9.40
2022-12-01T13:26:58.632Z,13.40
2022-12-01T13:29:29.577Z,13.40
2022-12-01T13:31:57.711Z,9.40
2022-12-01T13:34:30.702Z,14.30
2022-12-01T13:36:58.931Z,22.00
2022-12-01T13:39:36.324Z,12.70
2022-12-01T13:42:40.157Z,15.00
2022-12-01T13:45:37.702Z,15.80
2022-12-01T13:48:50.756Z,21.10
2022-12-01T13:56:17.876Z,20.30
2022-12-01T13:58:49.878Z,15.70
2022-12-01T14:01:29.655Z,19.80
2022-12-01T14:04:15.496Z,20.00
2022-12-01T14:06:59.986Z,22.50
2022-12-01T14:09:45.277Z,23.30
2022-12-01T14:16:58.609Z,22.20
2022-12-01T14:19:41.936Z,35.60
2022-12-01T14:22:35.705Z,14.70
2022-12-01T14:25:21.116Z,15.80
2022-12-01T14:27:57.884Z,23.40
2022-12-01T14:30:39.700Z,22.80
2022-12-01T14:33:48.894Z,34.90
2022-12-01T14:36:28.979Z,18.60
2022-12-01T14:38:59.982Z,19.60
2022-12-01T14:41:40.031Z,20.10
2022-12-01T14:44:31.668Z,26.00
2022-12-01T14:47:11.970Z,25.60
2022-12-01T14:50:06.587Z,23.40
2022-12-01T14:52:42.317Z,24.40
2022-12-01T14:55:25.279Z,18.20
2022-12-01T14:58:08.889Z,22.10
2022-12-01T15:00:38.394Z,27.70
2022-12-01T22:04:30.778Z,24.10
2022-12-01T22:06:58.109Z,19.90
2022-12-01T22:09:33.728Z,20.20
2022-12-01T22:12:09.475Z,15.30
2022-12-01T22:14:36.298Z,22.50
2022-12-01T22:17:05.680Z,14.30
2022-12-01T22:19:41.916Z,25.00
2022-12-01T22:22:08.473Z,25.60
2022-12-01T22:24:49.041Z,25.50
2022-12-01T22:27:21.821Z,26.30
2022-12-01T22:29:52.031Z,16.70
2022-12-01T22:32:31.158Z,32.20
2022-12-01T22:35:20.602Z,26.50
2022-12-01T22:37:52.017Z,22.80
2022-12-01T22:40:36.345Z,25.50
2022-12-01T22:43:15.324Z,16.10
2022-12-01T22:46:10.488Z,18.70
2022-12-01T22:48:44.929Z,27.30
2022-12-01T22:51:20.747Z,18.90
2022-12-01T22:53:47.784Z,26.20
2022-12-01T22:56:32.897Z,23.80
2022-12-01T22:59:00.264Z,26.20
2022-12-01T23:01:33.454Z,25.60
2022-12-01T23:04:24.462Z,16.20
2022-12-01T23:06:53.914Z,20.60
2022-12-01T23:09:23.013Z,19.80
2022-12-01T23:12:04.989Z,31.90
2022-12-01T23:14:33.590Z,17.70
2022-12-01T23:17:06.686Z,24.50
2022-12-01T23:19:34.253Z,26.00
2022-12-01T23:22:01.542Z,28.20
2022-12-01T23:24:33.474Z,22.10
2022-12-01T23:27:01.486Z,18.60
2022-12-01T23:29:29.698Z,22.00
2022-12-01T23:31:56.476Z,26.80
2022-12-01T23:34:23.149Z,25.30
2022-12-01T23:36:50.126Z,21.10
2022-12-01T23:39:18.432Z,20.70
2022-12-01T23:41:50.495Z,19.00
2022-12-01T23:44:40.293Z,22.50
2022-12-01T23:47:21.902Z,14.80
2022-12-01T23:50:01.877Z,23.50
2022-12-01T23:52:36.166Z,21.90
2022-12-01T23:55:15.176Z,18.60
2022-12-01T23:57:42.718Z,15.90
